Camellia — VRCP9 — position and weather

sailwx.info

Track history (hours):
 
Tides and Currents Weather Stations Pressure Air Temp Water Temp Dewpoint Dewpoint Depression Visibility Wind Speed Wind Dir Waves Ship Positions

Camellia

Last reported at 2017-Feb-19 01:33 UTC. Time now 2017-Feb-19 12:04 UTC.
Position N 16°12' W 061°32'.

Length 222 m; draft 8.4 m.

Type: Ship (hazmat cat C). MMSI: 477791900.

Date/timePositionNaut miles runAvg speedWind from/ knotsBaromVisibWave heightAir tempDewpointWater temp
2017-Feb-19 01:33N 16°12' W 061°32'2 1.3
2017-Feb-19 00:18N 16°14' W 061°33'0 0.0
2017-Feb-18 23:33N 16°14' W 061°33'0 0.0
2017-Feb-18 22:33N 16°14' W 061°33'0 0.0
2017-Feb-18 21:33N 16°14' W 061°33'0 0.0
2017-Feb-18 20:33N 16°14' W 061°33'0 0.0
2017-Feb-18 19:27N 16°14' W 061°33'0 0.0
2017-Feb-18 18:33N 16°14' W 061°33'0 0.0
2017-Feb-18 17:33N 16°14' W 061°33'0 0.0
2017-Feb-18 16:33N 16°14' W 061°33'0 0.0
2017-Feb-18 15:24N 16°14' W 061°33'0 0.0
2017-Feb-18 14:33N 16°14' W 061°33'0 0.0
2017-Feb-18 13:33N 16°14' W 061°33'0 0.0
2017-Feb-18 12:33N 16°14' W 061°33'0 0.0
2017-Feb-18 11:30N 16°14' W 061°33'0 0.0
2017-Feb-18 10:33N 16°14' W 061°33'0 0.0
2017-Feb-18 09:33N 16°14' W 061°33'5 5.4
2017-Feb-18 08:33N 16°09' W 061°30'8 8.4
2017-Feb-18 07:33N 16°00' W 061°31'2419.4
2017-Feb-18 06:20N 15°37' W 061°32'  
2017-Feb-15 04:26N 15°25' W 061°30'1618.3
2017-Feb-15 03:34N 15°41' W 061°32'1918.9
2017-Feb-15 02:33N 15°60' W 061°31'1312.8
2017-Feb-15 01:33N 16°13' W 061°32'1 1.4
2017-Feb-15 00:33N 16°14' W 061°33'0 0.0
2017-Feb-14 23:33N 16°14' W 061°33'0 0.0
2017-Feb-14 22:27N 16°14' W 061°33'0 0.0
2017-Feb-14 21:30N 16°14' W 061°33'0 0.0
2017-Feb-14 20:33N 16°14' W 061°33'0 0.0
2017-Feb-14 19:30N 16°14' W 061°33'0 0.0
2017-Feb-14 18:33N 16°14' W 061°33'0 0.0
2017-Feb-14 17:32N 16°14' W 061°33'0 0.0
2017-Feb-14 16:29N 16°14' W 061°33'0 0.0
2017-Feb-14 15:32N 16°14' W 061°33'0 0.0
2017-Feb-14 14:29N 16°14' W 061°33'0 0.0
2017-Feb-14 13:29N 16°14' W 061°33'0 0.0
2017-Feb-14 12:32N 16°14' W 061°33'0 0.0
2017-Feb-14 11:32N 16°14' W 061°33'0 0.0
2017-Feb-14 10:32N 16°14' W 061°33'0 0.0
2017-Feb-14 09:32N 16°14' W 061°33'0 0.0
2017-Feb-14 08:29N 16°14' W 061°33'0 0.0
2017-Feb-14 07:32N 16°14' W 061°33'0 0.0
2017-Feb-14 06:32N 16°14' W 061°33'0 0.0
2017-Feb-14 05:32N 16°14' W 061°33'0 0.0
2017-Feb-14 04:32N 16°14' W 061°33'0 0.0
2017-Feb-14 03:32N 16°14' W 061°33'0 0.0
2017-Feb-14 02:32N 16°14' W 061°33'0 0.0
2017-Feb-14 01:32N 16°14' W 061°33'0 0.0
2017-Feb-14 00:32N 16°14' W 061°33'0 0.0
2017-Feb-13 23:32N 16°14' W 061°33'0 0.0
2017-Feb-13 22:29N 16°14' W 061°33'0 0.0
2017-Feb-13 21:32N 16°14' W 061°33'0 0.0
2017-Feb-13 20:32N 16°14' W 061°33'0 0.0
2017-Feb-13 19:32N 16°14' W 061°33'0 0.0
2017-Feb-13 18:32N 16°14' W 061°33'0 0.0
2017-Feb-13 17:32N 16°14' W 061°33'0 0.3
2017-Feb-13 16:33N 16°14' W 061°32'6 5.9
2017-Feb-13 15:31N 16°09' W 061°29'3 3.1
2017-Feb-13 14:33N 16°08' W 061°26'  
Track history (hours):
 
Tides and Currents Weather Stations Pressure Air Temp Water Temp Dewpoint Dewpoint Depression Visibility Wind Speed Wind Dir Waves Ship Positions

Camellia

Last reported at 2017-Feb-19 01:33 UTC. Time now 2017-Feb-19 12:04 UTC.
Position N 16°12' W 061°32'.

Length 222 m; draft 8.4 m.

Type: Ship (hazmat cat C). MMSI: 477791900.

Date/timePositionNaut miles runAvg speedWind from/ knotsBaromVisibWave heightAir tempDewpointWater temp
2017-Feb-19 01:33N 16°12' W 061°32'2 1.3
2017-Feb-19 00:18N 16°14' W 061°33'0 0.0
2017-Feb-18 23:33N 16°14' W 061°33'0 0.0
2017-Feb-18 22:33N 16°14' W 061°33'0 0.0
2017-Feb-18 21:33N 16°14' W 061°33'0 0.0
2017-Feb-18 20:33N 16°14' W 061°33'0 0.0
2017-Feb-18 19:27N 16°14' W 061°33'0 0.0
2017-Feb-18 18:33N 16°14' W 061°33'0 0.0
2017-Feb-18 17:33N 16°14' W 061°33'0 0.0
2017-Feb-18 16:33N 16°14' W 061°33'0 0.0
2017-Feb-18 15:24N 16°14' W 061°33'0 0.0
2017-Feb-18 14:33N 16°14' W 061°33'0 0.0
2017-Feb-18 13:33N 16°14' W 061°33'0 0.0
2017-Feb-18 12:33N 16°14' W 061°33'0 0.0
2017-Feb-18 11:30N 16°14' W 061°33'0 0.0
2017-Feb-18 10:33N 16°14' W 061°33'0 0.0
2017-Feb-18 09:33N 16°14' W 061°33'5 5.4
2017-Feb-18 08:33N 16°09' W 061°30'8 8.4
2017-Feb-18 07:33N 16°00' W 061°31'2419.4
2017-Feb-18 06:20N 15°37' W 061°32'  
2017-Feb-15 04:26N 15°25' W 061°30'1618.3
2017-Feb-15 03:34N 15°41' W 061°32'1918.9
2017-Feb-15 02:33N 15°60' W 061°31'1312.8
2017-Feb-15 01:33N 16°13' W 061°32'1 1.4
2017-Feb-15 00:33N 16°14' W 061°33'0 0.0
2017-Feb-14 23:33N 16°14' W 061°33'0 0.0
2017-Feb-14 22:27N 16°14' W 061°33'0 0.0
2017-Feb-14 21:30N 16°14' W 061°33'0 0.0
2017-Feb-14 20:33N 16°14' W 061°33'0 0.0
2017-Feb-14 19:30N 16°14' W 061°33'0 0.0
2017-Feb-14 18:33N 16°14' W 061°33'0 0.0
2017-Feb-14 17:32N 16°14' W 061°33'0 0.0
2017-Feb-14 16:29N 16°14' W 061°33'0 0.0
2017-Feb-14 15:32N 16°14' W 061°33'0 0.0
2017-Feb-14 14:29N 16°14' W 061°33'0 0.0
2017-Feb-14 13:29N 16°14' W 061°33'0 0.0
2017-Feb-14 12:32N 16°14' W 061°33'0 0.0
2017-Feb-14 11:32N 16°14' W 061°33'0 0.0
2017-Feb-14 10:32N 16°14' W 061°33'0 0.0
2017-Feb-14 09:32N 16°14' W 061°33'0 0.0
2017-Feb-14 08:29N 16°14' W 061°33'0 0.0
2017-Feb-14 07:32N 16°14' W 061°33'0 0.0
2017-Feb-14 06:32N 16°14' W 061°33'0 0.0
2017-Feb-14 05:32N 16°14' W 061°33'0 0.0
2017-Feb-14 04:32N 16°14' W 061°33'0 0.0
2017-Feb-14 03:32N 16°14' W 061°33'0 0.0
2017-Feb-14 02:32N 16°14' W 061°33'0 0.0
2017-Feb-14 01:32N 16°14' W 061°33'0 0.0
2017-Feb-14 00:32N 16°14' W 061°33'0 0.0
2017-Feb-13 23:32N 16°14' W 061°33'0 0.0
2017-Feb-13 22:29N 16°14' W 061°33'0 0.0
2017-Feb-13 21:32N 16°14' W 061°33'0 0.0
2017-Feb-13 20:32N 16°14' W 061°33'0 0.0
2017-Feb-13 19:32N 16°14' W 061°33'0 0.0
2017-Feb-13 18:32N 16°14' W 061°33'0 0.0
2017-Feb-13 17:32N 16°14' W 061°33'0 0.3
2017-Feb-13 16:33N 16°14' W 061°32'6 5.9
2017-Feb-13 15:31N 16°09' W 061°29'3 3.1
2017-Feb-13 14:33N 16°08' W 061°26'  

Dump ship's entire track history